• Join FlightAware (Why Join?)
  • Login
  • US Flag 
09:37PM EDT


 

Airport Tracker/Info


-or-


 

Live Flight TrackerFlight Track Log ✈ ASH2785 ✈ 09-May-2012 ✈ KGJT - KPHX

Flight Track Log - Related Links

Times and Time Zones

All times are in EDT time to prevent confusion due to time zone crossing. See the ASH2785 flight status page for this flight to view local times or setup timezone preferences in your user account.

Time Position Orientation Groundspeed Altitude Reporting Facility
EDT Latitude Longitude Course Direction KTS MPH feet Rate Location/Type
09:48AM 39.1000 -108.5000 205° Southwest 146 168 6,200  Level Denver TRACON
09:53AM 38.9000 -108.6181 206° Southwest 162 186 13,500 1,320 Climbing Denver Center
09:54AM 38.8556 -108.6461 203° Southwest 167 192 14,700 1,200 Climbing Denver Center
09:55AM 38.8050 -108.6739 205° Southwest 180 207 15,900 1,200 Climbing Denver Center
09:56AM 38.7586 -108.7017 202° Southwest 185 213 17,200 960 Climbing Denver Center
09:57AM 38.7144 -108.7242 208° Southwest 185 213 17,900 780 Climbing Denver Center
09:58AM 38.6658 -108.7572 205° Southwest 194 223 18,800 900 Climbing Denver Center
09:59AM 38.6108 -108.7900 207° Southwest 200 230 19,800 960 Climbing Denver Center
10:00AM 38.5603 -108.8228 206° Southwest 200 230 20,800 900 Climbing Denver Center
10:01AM 38.5158 -108.8506 202° Southwest 200 230 21,600 720 Climbing Denver Center
10:02AM 38.4631 -108.8778 206° Southwest 205 236 22,300 840 Climbing Denver Center
10:03AM 38.4061 -108.9131 205° Southwest 210 242 23,300 840 Climbing Denver Center
10:04AM 38.3553 -108.9431 207° Southwest 210 242 24,000 300 Climbing Denver Center
10:05AM 38.3025 -108.9781 202° Southwest 210 242 24,000  Level Denver Center
10:06AM 38.2456 -109.0078 205° Southwest 236 272 24,000  Level Denver Center
10:07AM 38.1736 -109.0503 204° Southwest 247 284 24,000  Level Denver Center
10:08AM 38.1039 -109.0900 203° Southwest 260 299 24,000  Level Denver Center
10:09AM 38.0344 -109.1269 207° Southwest 271 312 24,000  Level Denver Center
10:10AM 37.9667 -109.1717 204° Southwest 271 312 24,000  Level Denver Center
10:11AM 37.9011 -109.2086 204° Southwest 281 323 24,000  Level Denver Center
10:12AM 37.8228 -109.2531 205° Southwest 281 323 24,000  Level Denver Center
10:13AM 37.7531 -109.2950 204° Southwest 274 315 24,000  Level Denver Center
10:14AM 37.6833 -109.3342 204° Southwest 279 321 24,000  Level Denver Center
10:15AM 37.6239 -109.3683 204° Southwest 279 321 24,000  Level Denver Center
10:16AM 37.5500 -109.4100 208° Southwest 273 314 24,000  Level Denver Center
10:17AM 37.4864 -109.4519 203° Southwest 273 314 24,000  Level Denver Center
10:18AM 37.4272 -109.4833 206° Southwest 268 308 24,000  Level Denver Center
10:19AM 37.3636 -109.5225 205° Southwest 262 302 24,000  Level Denver Center
10:20AM 37.2917 -109.5639 204° Southwest 262 302 24,000  Level Denver Center
10:21AM 37.2281 -109.6003 204° Southwest 256 295 24,000  Level Denver Center
10:22AM 37.1731 -109.6317 204° Southwest 251 289 24,000  Level Denver Center
10:23AM 37.1117 -109.6656 204° Southwest 251 289 24,000  Level Denver Center
10:24AM 37.0458 -109.7017 206° Southwest 240 276 24,000  Level Denver Center
10:25AM 36.9867 -109.7381 203° Southwest 240 276 24,000  Level Denver Center
10:26AM 36.9294 -109.7692 204° Southwest 240 276 24,000  Level Denver Center
10:27AM 36.8742 -109.8003 205° Southwest 234 269 24,000  Level Denver Center
10:28AM 36.8128 -109.8364 204° Southwest 229 264 24,000  Level Denver Center
10:29AM 36.7578 -109.8675 204° Southwest 224 258 24,000  Level Denver Center
10:30AM 36.7067 -109.8961 205° Southwest 224 258 24,000  Level Denver Center
10:31AM 36.6475 -109.9297 204° Southwest 219 252 24,000  Level Denver Center
10:32AM 36.5922 -109.9606 204° Southwest 219 252 24,000  Level Denver Center
10:33AM 36.5372 -109.9917 203° Southwest 219 252 24,000  Level Denver Center
10:34AM 36.4883 -110.0178 205° Southwest 219 252 24,000  Level Denver Center
10:35AM 36.4311 -110.0511 204° Southwest 219 252 24,000  Level Denver Center
10:36AM 36.3758 -110.0819 202° Southwest 219 252 24,000  Level Denver Center
10:37AM 36.3250 -110.1078 203° Southwest 219 252 24,000  Level Denver Center
10:38AM 36.2636 -110.1406 201° Southwest 219 252 24,000  Level Denver Center
10:39AM 36.2150 -110.1639 205° Southwest 219 252 24,000  Level Denver Center
10:40AM 36.1619 -110.1947 204° Southwest 214 246 24,000  Level Denver Center
10:42AM 36.0461 -110.2589 205° Southwest 214 246 24,000  Level Albuquerque Center
10:43AM 35.9911 -110.2903 204° Southwest 220 253 24,000  Level Albuquerque Center
10:44AM 35.9297 -110.3239 204° Southwest 220 253 24,000  Level Albuquerque Center
10:45AM 35.8767 -110.3528 234° Southwest 220 253 24,000  Level Albuquerque Center
10:46AM 35.8442 -110.4078 236° Southwest 220 253 24,000  Level Albuquerque Center
10:47AM 35.8092 -110.4706 238° Southwest 225 259 24,000  Level Albuquerque Center
10:48AM 35.7717 -110.5433 234° Southwest 230 265 24,000  Level Albuquerque Center
10:49AM 35.7344 -110.6058 240° Southwest 230 265 24,000  Level Albuquerque Center
10:50AM 35.7058 -110.6661 234° Southwest 230 265 24,000  Level Albuquerque Center
10:51AM 35.6664 -110.7336 239° Southwest 236 272 24,000  Level Albuquerque Center
10:52AM 35.6308 -110.8061 236° Southwest 230 265 24,000  Level Albuquerque Center
10:53AM 35.5933 -110.8733 235° Southwest 235 270 24,000  Level Albuquerque Center
10:54AM 35.5606 -110.9308 237° Southwest 235 270 24,000  Level Albuquerque Center
10:55AM 35.5250 -110.9981 237° Southwest 235 270 24,000  Level Albuquerque Center
10:56AM 35.4872 -111.0703 235° Southwest 235 270 24,000  Level Albuquerque Center
10:57AM 35.4497 -111.1350 238° Southwest 235 270 24,000  Level Albuquerque Center
10:58AM 35.4186 -111.1972 237° Southwest 235 270 24,000  Level Albuquerque Center
10:59AM 35.3831 -111.2642 235° Southwest 241 277 24,000  Level Albuquerque Center
11:00AM 35.3411 -111.3386 234° Southwest 241 277 24,000  Level Albuquerque Center
11:01AM 35.3011 -111.4053 236° Southwest 246 283 24,000  Level Albuquerque Center
11:02AM 35.2633 -111.4747 235° Southwest 246 283 24,000  Level Albuquerque Center
11:03AM 35.2256 -111.5414 237° Southwest 246 283 24,000  Level Albuquerque Center
11:04AM 35.1897 -111.6081 235° Southwest 246 283 24,000  Level Albuquerque Center
11:05AM 35.1519 -111.6747 237° Southwest 246 283 24,000  Level Albuquerque Center
11:06AM 35.1139 -111.7464 236° Southwest 251 289 24,000  Level Albuquerque Center
11:07AM 35.0758 -111.8153 236° Southwest 251 289 24,000  Level Albuquerque Center
11:08AM 35.0378 -111.8842 235° Southwest 251 289 24,000  Level Albuquerque Center
11:09AM 34.9978 -111.9531 236° Southwest 251 289 24,000  Level Albuquerque Center
11:10AM 34.9594 -112.0219 237° Southwest 251 289 24,000  Level Albuquerque Center
11:11AM 34.9211 -112.0931 234° Southwest 251 289 24,000  Level Albuquerque Center
11:12AM 34.8808 -112.1617 237° Southwest 251 289 24,000 -240 Level Albuquerque Center
11:13AM 34.8425 -112.2328 237° Southwest 251 289 23,600 -600 Descending Albuquerque Center
11:14AM 34.8042 -112.3039 210° Southwest 251 289 22,800 -900 Descending Albuquerque Center
11:15AM 34.7483 -112.3433 164° South 251 289 21,800 -1,200 Descending Albuquerque Center
11:16AM 34.6867 -112.3219 166° South 215 247 20,500 -1,560 Descending Albuquerque Center
11:17AM 34.6228 -112.3031 166° South 230 265 18,700 -1,740 Descending Albuquerque Center
11:18AM 34.5589 -112.2839 166° South 242 278 17,100 -1,740 Descending Albuquerque Center
11:19AM 34.4969 -112.2653 168° South 237 273 15,300 -1,620 Descending Albuquerque Center
11:21AM 34.4475 -112.2522 165° South 237 273 13,600 -1,800 Descending Albuquerque Center
11:22AM 34.3711 -112.2275 164° South 232 267 11,400 -1,260 Descending Albuquerque Center
11:23AM 34.3117 -112.2064 165° South 227 261 11,100 -180 Descending Albuquerque Center
11:24AM 34.2561 -112.1881 167° South 217 250 11,100 -60 Level Albuquerque Center
11:25AM 34.1983 -112.1719 164° South 217 250 11,000 -480 Descending Albuquerque Center
11:26AM 34.1364 -112.1508 166° South 222 255 10,200 -480 Descending Albuquerque Center
11:27AM 34.0747 -112.1322 185° South 227 261 10,100 -180 Descending Albuquerque Center
11:28AM 34.0117 -112.1386 193° South 227 261 9,900 -480 Descending Albuquerque Center
11:30AM 33.8500 -112.1833 189° South 264 304 8,500 -600 Descending Phoenix TRACON
11:31AM 33.7667 -112.2000 189° South 265 305 8,000 -240 Descending Phoenix TRACON
11:32AM 33.6833 -112.2167 192° South 258 297 8,000 -300 Level Phoenix TRACON
11:33AM 33.6167 -112.2333 180° South 259 298 7,400 -1,080 Descending Phoenix TRACON
11:34AM 33.5333 -112.2333 196° South 250 288 5,800 -1,380 Descending Phoenix TRACON
11:35AM 33.4833 -112.2500 140° Southeast 209 241 4,700 -960 Descending Phoenix TRACON
11:36AM 33.4500 -112.2167 90° East 179 206 4,100 -840 Descending Phoenix TRACON
11:37AM 33.4500 -112.1500 112° Southeast 174 200 3,100 -780 Descending Phoenix TRACON
11:38AM 33.4333 -112.1000 90° East 153 176 2,500 -660 Descending Phoenix TRACON
11:39AM 33.4333 -112.0667 90° East 118 136 1,900 -660 Descending Phoenix TRACON